sensor_id;sensor_type;location;lat;lon;timestamp;pressure;altitude;pressure_sealevel;temperature;humidity
45050;BME280;61798;48.048;-1.928;2024-01-15T00:00:49;99532.97;;;0.85;100.00
45050;BME280;61798;48.048;-1.928;2024-01-15T00:02:55;99524.53;;;0.81;100.00
45050;BME280;61798;48.048;-1.928;2024-01-15T00:05:02;99516.50;;;0.83;100.00
45050;BME280;61798;48.048;-1.928;2024-01-15T00:07:09;99522.78;;;0.90;100.00
45050;BME280;61798;48.048;-1.928;2024-01-15T00:09:15;99519.63;;;0.87;100.00
45050;BME280;61798;48.048;-1.928;2024-01-15T00:11:21;99523.28;;;0.94;100.00
45050;BME280;61798;48.048;-1.928;2024-01-15T00:13:27;99481.13;;;0.67;100.00
45050;BME280;61798;48.048;-1.928;2024-01-15T00:15:33;99482.97;;;0.75;100.00
45050;BME280;61798;48.048;-1.928;2024-01-15T00:17:39;99495.91;;;0.87;100.00
45050;BME280;61798;48.048;-1.928;2024-01-15T00:19:44;99476.50;;;0.69;100.00
45050;BME280;61798;48.048;-1.928;2024-01-15T00:21:50;99488.44;;;0.82;100.00
45050;BME280;61798;48.048;-1.928;2024-01-15T00:23:56;99484.00;;;0.82;100.00
45050;BME280;61798;48.048;-1.928;2024-01-15T00:26:02;99486.16;;;0.87;100.00
45050;BME280;61798;48.048;-1.928;2024-01-15T00:28:08;99473.25;;;0.76;100.00
45050;BME280;61798;48.048;-1.928;2024-01-15T00:30:13;99467.44;;;0.72;100.00
45050;BME280;61798;48.048;-1.928;2024-01-15T00:32:20;99471.16;;;0.88;100.00
45050;BME280;61798;48.048;-1.928;2024-01-15T00:34:25;99461.75;;;0.85;100.00
45050;BME280;61798;48.048;-1.928;2024-01-15T00:36:31;99467.72;;;0.87;100.00
45050;BME280;61798;48.048;-1.928;2024-01-15T00:38:37;99471.69;;;0.91;100.00
45050;BME280;61798;48.048;-1.928;2024-01-15T00:40:43;99451.19;;;0.85;100.00
45050;BME280;61798;48.048;-1.928;2024-01-15T00:42:48;99466.56;;;0.90;100.00
45050;BME280;61798;48.048;-1.928;2024-01-15T00:44:54;99446.25;;;0.82;100.00
45050;BME280;61798;48.048;-1.928;2024-01-15T00:47:00;99455.63;;;0.84;100.00
45050;BME280;61798;48.048;-1.928;2024-01-15T00:49:07;99443.41;;;0.75;100.00
45050;BME280;61798;48.048;-1.928;2024-01-15T00:51:13;99455.00;;;0.82;100.00
45050;BME280;61798;48.048;-1.928;2024-01-15T00:53:18;99453.69;;;0.87;100.00
45050;BME280;61798;48.048;-1.928;2024-01-15T00:55:25;99439.81;;;0.84;100.00
45050;BME280;61798;48.048;-1.928;2024-01-15T00:57:31;99444.47;;;0.91;100.00
45050;BME280;61798;48.048;-1.928;2024-01-15T00:59:37;99444.28;;;0.92;100.00
45050;BME280;61798;48.048;-1.928;2024-01-15T01:01:43;99433.75;;;0.92;100.00
45050;BME280;61798;48.048;-1.928;2024-01-15T01:03:51;99401.38;;;0.73;100.00
45050;BME280;61798;48.048;-1.928;2024-01-15T01:05:57;99424.50;;;0.88;100.00
45050;BME280;61798;48.048;-1.928;2024-01-15T01:08:03;99414.28;;;0.85;100.00
45050;BME280;61798;48.048;-1.928;2024-01-15T01:10:09;99430.47;;;0.90;100.00
45050;BME280;61798;48.048;-1.928;2024-01-15T01:12:15;99420.22;;;0.87;100.00
45050;BME280;61798;48.048;-1.928;2024-01-15T01:14:20;99425.00;;;0.92;100.00
45050;BME280;61798;48.048;-1.928;2024-01-15T01:16:26;99420.06;;;0.89;100.00
45050;BME280;61798;48.048;-1.928;2024-01-15T01:18:32;99417.59;;;0.87;100.00
45050;BME280;61798;48.048;-1.928;2024-01-15T01:20:38;99409.97;;;0.84;100.00
45050;BME280;61798;48.048;-1.928;2024-01-15T01:22:43;99415.94;;;0.86;100.00
45050;BME280;61798;48.048;-1.928;2024-01-15T01:24:49;99372.34;;;0.65;100.00
45050;BME280;61798;48.048;-1.928;2024-01-15T01:26:55;99372.84;;;0.69;100.00
45050;BME280;61798;48.048;-1.928;2024-01-15T01:29:01;99389.66;;;0.76;100.00
45050;BME280;61798;48.048;-1.928;2024-01-15T01:31:07;99392.16;;;0.78;100.00
45050;BME280;61798;48.048;-1.928;2024-01-15T01:33:14;99394.66;;;0.79;100.00
45050;BME280;61798;48.048;-1.928;2024-01-15T01:35:19;99389.69;;;0.84;100.00
45050;BME280;61798;48.048;-1.928;2024-01-15T01:37:25;99387.53;;;0.80;100.00
45050;BME280;61798;48.048;-1.928;2024-01-15T01:39:31;99401.09;;;0.85;100.00
45050;BME280;61798;48.048;-1.928;2024-01-15T01:41:38;99402.56;;;0.88;100.00
45050;BME280;61798;48.048;-1.928;2024-01-15T01:43:44;99379.94;;;0.77;100.00
45050;BME280;61798;48.048;-1.928;2024-01-15T01:45:50;99372.50;;;0.72;100.00
45050;BME280;61798;48.048;-1.928;2024-01-15T01:47:56;99376.66;;;0.75;100.00
45050;BME280;61798;48.048;-1.928;2024-01-15T01:50:02;99395.66;;;0.87;100.00
45050;BME280;61798;48.048;-1.928;2024-01-15T01:52:09;99358.81;;;0.68;100.00
45050;BME280;61798;48.048;-1.928;2024-01-15T01:54:15;99391.53;;;0.92;100.00
45050;BME280;61798;48.048;-1.928;2024-01-15T01:56:22;99361.97;;;0.72;100.00
45050;BME280;61798;48.048;-1.928;2024-01-15T01:58:28;99384.78;;;0.90;100.00
45050;BME280;61798;48.048;-1.928;2024-01-15T02:00:36;99378.16;;;0.86;100.00
45050;BME280;61798;48.048;-1.928;2024-01-15T02:02:42;99378.31;;;0.84;100.00
45050;BME280;61798;48.048;-1.928;2024-01-15T02:04:49;99384.78;;;0.90;100.00
45050;BME280;61798;48.048;-1.928;2024-01-15T02:06:55;99345.63;;;0.68;100.00
45050;BME280;61798;48.048;-1.928;2024-01-15T02:09:01;99354.91;;;0.81;100.00
45050;BME280;61798;48.048;-1.928;2024-01-15T02:11:07;99369.94;;;0.89;100.00
45050;BME280;61798;48.048;-1.928;2024-01-15T02:13:13;99364.81;;;0.79;100.00
45050;BME280;61798;48.048;-1.928;2024-01-15T02:15:19;99362.16;;;0.79;100.00
45050;BME280;61798;48.048;-1.928;2024-01-15T02:17:24;99366.63;;;0.78;100.00
45050;BME280;61798;48.048;-1.928;2024-01-15T02:19:30;99380.34;;;0.90;100.00
45050;BME280;61798;48.048;-1.928;2024-01-15T02:21:36;99375.38;;;0.87;100.00
45050;BME280;61798;48.048;-1.928;2024-01-15T02:23:42;99376.38;;;0.86;100.00
45050;BME280;61798;48.048;-1.928;2024-01-15T02:25:48;99372.91;;;0.86;100.00
45050;BME280;61798;48.048;-1.928;2024-01-15T02:27:54;99356.56;;;0.82;100.00
45050;BME280;61798;48.048;-1.928;2024-01-15T02:30:00;99352.78;;;0.84;100.00
45050;BME280;61798;48.048;-1.928;2024-01-15T02:32:07;99351.78;;;0.86;100.00
45050;BME280;61798;48.048;-1.928;2024-01-15T02:34:14;99355.25;;;0.78;100.00
45050;BME280;61798;48.048;-1.928;2024-01-15T02:36:19;99351.78;;;0.77;100.00
45050;BME280;61798;48.048;-1.928;2024-01-15T02:38:25;99346.81;;;0.74;100.00
45050;BME280;61798;48.048;-1.928;2024-01-15T02:40:31;99371.91;;;0.87;100.00
45050;BME280;61798;48.048;-1.928;2024-01-15T02:42:38;99361.19;;;0.88;100.00
45050;BME280;61798;48.048;-1.928;2024-01-15T02:44:46;99351.44;;;0.80;100.00
45050;BME280;61798;48.048;-1.928;2024-01-15T02:46:54;99171.31;;;0.71;100.00
45050;BME280;61798;48.048;-1.928;2024-01-15T02:48:59;99176.56;;;0.71;100.00
45050;BME280;61798;48.048;-1.928;2024-01-15T02:51:05;99166.19;;;0.70;100.00
45050;BME280;61798;48.048;-1.928;2024-01-15T02:53:11;99168.47;;;0.73;100.00
45050;BME280;61798;48.048;-1.928;2024-01-15T02:55:17;99210.69;;;0.90;100.00
45050;BME280;61798;48.048;-1.928;2024-01-15T02:57:23;99194.84;;;0.81;100.00
45050;BME280;61798;48.048;-1.928;2024-01-15T02:59:29;99187.94;;;0.80;100.00
45050;BME280;61798;48.048;-1.928;2024-01-15T03:01:34;99168.97;;;0.68;100.00
45050;BME280;61798;48.048;-1.928;2024-01-15T03:03:40;99196.19;;;0.86;100.00
45050;BME280;61798;48.048;-1.928;2024-01-15T03:05:46;99192.06;;;0.91;100.00
45050;BME280;61798;48.048;-1.928;2024-01-15T03:07:52;99183.47;;;0.89;100.00
45050;BME280;61798;48.048;-1.928;2024-01-15T03:09:58;99178.19;;;0.89;100.00
45050;BME280;61798;48.048;-1.928;2024-01-15T03:12:04;99180.19;;;0.87;100.00
45050;BME280;61798;48.048;-1.928;2024-01-15T03:14:10;99138.97;;;0.78;100.00
45050;BME280;61798;48.048;-1.928;2024-01-15T03:16:16;99165.16;;;0.88;100.00
45050;BME280;61798;48.048;-1.928;2024-01-15T03:18:22;99164.38;;;0.87;100.00
45050;BME280;61798;48.048;-1.928;2024-01-15T03:20:28;99155.28;;;0.81;100.00
45050;BME280;61798;48.048;-1.928;2024-01-15T03:22:33;99156.94;;;0.82;100.00
45050;BME280;61798;48.048;-1.928;2024-01-15T03:24:39;99149.53;;;0.78;100.00
45050;BME280;61798;48.048;-1.928;2024-01-15T03:26:45;99156.94;;;0.82;100.00
45050;BME280;61798;48.048;-1.928;2024-01-15T03:28:51;99152.81;;;0.88;100.00
45050;BME280;61798;48.048;-1.928;2024-01-15T03:30:57;99147.53;;;0.88;100.00
45050;BME280;61798;48.048;-1.928;2024-01-15T03:33:03;99136.00;;;0.89;100.00
45050;BME280;61798;48.048;-1.928;2024-01-15T03:35:09;99127.59;;;0.77;100.00
45050;BME280;61798;48.048;-1.928;2024-01-15T03:37:14;99143.59;;;0.84;100.00
45050;BME280;61798;48.048;-1.928;2024-01-15T03:39:20;99136.19;;;0.79;100.00
45050;BME280;61798;48.048;-1.928;2024-01-15T03:41:26;99104.34;;;0.81;100.00
45050;BME280;61798;48.048;-1.928;2024-01-15T03:43:32;99106.66;;;0.84;100.00
45050;BME280;61798;48.048;-1.928;2024-01-15T03:45:38;99109.47;;;0.82;100.00
45050;BME280;61798;48.048;-1.928;2024-01-15T03:47:43;99074.22;;;0.58;100.00
45050;BME280;61798;48.048;-1.928;2024-01-15T03:49:49;99102.06;;;0.78;100.00
45050;BME280;61798;48.048;-1.928;2024-01-15T03:51:55;99069.94;;;0.66;100.00
45050;BME280;61798;48.048;-1.928;2024-01-15T03:54:01;99093.81;;;0.89;100.00
45050;BME280;61798;48.048;-1.928;2024-01-15T03:56:07;99114.75;;;0.91;100.00
45050;BME280;61798;48.048;-1.928;2024-01-15T03:58:12;99108.16;;;0.87;100.00
45050;BME280;61798;48.048;-1.928;2024-01-15T04:00:20;99112.25;;;0.89;100.00
45050;BME280;61798;48.048;-1.928;2024-01-15T04:02:26;99119.19;;;0.90;100.00
45050;BME280;61798;48.048;-1.928;2024-01-15T04:04:32;99123.47;;;0.91;100.00
45050;BME280;61798;48.048;-1.928;2024-01-15T04:06:37;99109.63;;;0.81;100.00
45050;BME280;61798;48.048;-1.928;2024-01-15T04:08:43;99104.34;;;0.81;100.00
45050;BME280;61798;48.048;-1.928;2024-01-15T04:10:49;99100.25;;;0.87;100.00
45050;BME280;61798;48.048;-1.928;2024-01-15T04:12:55;99095.31;;;0.83;100.00
45050;BME280;61798;48.048;-1.928;2024-01-15T04:15:01;99099.91;;;0.81;100.00
45050;BME280;61798;48.048;-1.928;2024-01-15T04:17:06;99100.91;;;0.80;100.00
45050;BME280;61798;48.048;-1.928;2024-01-15T04:19:12;99108.66;;;0.82;100.00
45050;BME280;61798;48.048;-1.928;2024-01-15T04:21:18;99106.50;;;0.86;100.00
45050;BME280;61798;48.048;-1.928;2024-01-15T04:23:24;99122.81;;;0.89;100.00
45050;BME280;61798;48.048;-1.928;2024-01-15T04:25:30;99119.19;;;0.82;100.00
45050;BME280;61798;48.048;-1.928;2024-01-15T04:27:36;99098.78;;;0.76;100.00
45050;BME280;61798;48.048;-1.928;2024-01-15T04:29:42;99121.16;;;0.88;100.00
45050;BME280;61798;48.048;-1.928;2024-01-15T04:31:50;99047.16;;;0.81;100.00
45050;BME280;61798;48.048;-1.928;2024-01-15T04:33:56;99036.50;;;0.66;100.00
45050;BME280;61798;48.048;-1.928;2024-01-15T04:36:03;99055.56;;;0.85;100.00
45050;BME280;61798;48.048;-1.928;2024-01-15T04:38:09;99052.09;;;0.84;100.00
45050;BME280;61798;48.048;-1.928;2024-01-15T04:40:15;99055.22;;;0.88;100.00
45050;BME280;61798;48.048;-1.928;2024-01-15T04:42:21;99059.03;;;0.86;100.00
45050;BME280;61798;48.048;-1.928;2024-01-15T04:44:27;99058.38;;;0.83;100.00
45050;BME280;61798;48.048;-1.928;2024-01-15T04:46:32;99035.94;;;0.88;100.00
45050;BME280;61798;48.048;-1.928;2024-01-15T04:48:38;99008.59;;;0.80;100.00
45050;BME280;61798;48.048;-1.928;2024-01-15T04:50:44;99019.94;;;0.89;100.00
45050;BME280;61798;48.048;-1.928;2024-01-15T04:52:50;99021.94;;;0.87;100.00
45050;BME280;61798;48.048;-1.928;2024-01-15T04:54:56;99016.66;;;0.87;100.00
45050;BME280;61798;48.048;-1.928;2024-01-15T04:57:02;99028.84;;;0.88;100.00
45050;BME280;61798;48.048;-1.928;2024-01-15T04:59:08;99024.59;;;0.87;100.00
45050;BME280;61798;48.048;-1.928;2024-01-15T05:01:15;99021.97;;;0.79;100.00
45050;BME280;61798;48.048;-1.928;2024-01-15T05:03:22;99034.47;;;0.85;100.00
45050;BME280;61798;48.048;-1.928;2024-01-15T05:05:27;99040.22;;;0.89;100.00
45050;BME280;61798;48.048;-1.928;2024-01-15T05:07:33;99029.84;;;0.87;100.00
45050;BME280;61798;48.048;-1.928;2024-01-15T05:09:39;99038.56;;;0.88;100.00
45050;BME280;61798;48.048;-1.928;2024-01-15T05:11:45;99029.03;;;0.87;100.00
45050;BME280;61798;48.048;-1.928;2024-01-15T05:13:51;99039.25;;;0.90;100.00
45050;BME280;61798;48.048;-1.928;2024-01-15T05:15:57;99036.44;;;0.91;100.00
45050;BME280;61798;48.048;-1.928;2024-01-15T05:18:02;99018.84;;;0.75;100.00
45050;BME280;61798;48.048;-1.928;2024-01-15T05:20:09;99020.16;;;0.79;100.00
45050;BME280;61798;48.048;-1.928;2024-01-15T05:22:15;99003.34;;;0.72;100.00
45050;BME280;61798;48.048;-1.928;2024-01-15T05:24:20;99018.00;;;0.83;100.00
45050;BME280;61798;48.048;-1.928;2024-01-15T05:26:26;99029.31;;;0.92;100.00
45050;BME280;61798;48.048;-1.928;2024-01-15T05:28:32;99022.75;;;0.88;100.00
45050;BME280;61798;48.048;-1.928;2024-01-15T05:30:38;99025.09;;;0.82;100.00
45050;BME280;61798;48.048;-1.928;2024-01-15T05:32:44;98996.75;;;0.68;100.00
45050;BME280;61798;48.048;-1.928;2024-01-15T05:34:50;99031.81;;;0.85;100.00
45050;BME280;61798;48.048;-1.928;2024-01-15T05:36:55;99034.47;;;0.85;100.00
45050;BME280;61798;48.048;-1.928;2024-01-15T05:39:01;99030.50;;;0.81;100.00
45050;BME280;61798;48.048;-1.928;2024-01-15T05:41:07;99031.50;;;0.80;100.00
45050;BME280;61798;48.048;-1.928;2024-01-15T05:43:13;99030.22;;;0.76;100.00
45050;BME280;61798;48.048;-1.928;2024-01-15T05:45:19;99025.75;;;0.76;100.00
45050;BME280;61798;48.048;-1.928;2024-01-15T05:47:25;99040.91;;;0.82;100.00
45050;BME280;61798;48.048;-1.928;2024-01-15T05:49:31;99027.25;;;0.79;100.00
45050;BME280;61798;48.048;-1.928;2024-01-15T05:51:36;98993.34;;;0.59;100.00
45050;BME280;61798;48.048;-1.928;2024-01-15T05:53:42;99027.53;;;0.84;100.00
45050;BME280;61798;48.048;-1.928;2024-01-15T05:55:49;99030.00;;;0.86;100.00
45050;BME280;61798;48.048;-1.928;2024-01-15T05:57:55;99015.53;;;0.73;100.00
45050;BME280;61798;48.048;-1.928;2024-01-15T06:00:01;98996.47;;;0.62;100.00
45050;BME280;61798;48.048;-1.928;2024-01-15T06:02:07;99027.88;;;0.81;100.00
45050;BME280;61798;48.048;-1.928;2024-01-15T06:04:12;99001.53;;;0.64;100.00
45050;BME280;61798;48.048;-1.928;2024-01-15T06:06:18;99018.03;;;0.75;100.00
45050;BME280;61798;48.048;-1.928;2024-01-15T06:08:24;99029.88;;;0.79;100.00
45050;BME280;61798;48.048;-1.928;2024-01-15T06:10:32;99026.75;;;0.83;100.00
45050;BME280;61798;48.048;-1.928;2024-01-15T06:12:38;99026.56;;;0.85;100.00
45050;BME280;61798;48.048;-1.928;2024-01-15T06:14:43;99023.91;;;0.85;100.00
45050;BME280;61798;48.048;-1.928;2024-01-15T06:16:49;98998.25;;;0.70;100.00
45050;BME280;61798;48.048;-1.928;2024-01-15T06:18:55;99007.47;;;0.75;100.00
45050;BME280;61798;48.048;-1.928;2024-01-15T06:21:01;99025.56;;;0.86;100.00
45050;BME280;61798;48.048;-1.928;2024-01-15T06:23:06;99031.31;;;0.90;100.00
45050;BME280;61798;48.048;-1.928;2024-01-15T06:25:12;99037.59;;;0.89;100.00
45050;BME280;61798;48.048;-1.928;2024-01-15T06:27:18;99003.53;;;0.62;100.00
45050;BME280;61798;48.048;-1.928;2024-01-15T06:29:26;99033.81;;;0.91;100.00
45050;BME280;61798;48.048;-1.928;2024-01-15T06:31:32;99048.81;;;0.91;100.00
45050;BME280;61798;48.048;-1.928;2024-01-15T06:33:38;99038.09;;;0.84;100.00
45050;BME280;61798;48.048;-1.928;2024-01-15T06:35:44;99032.00;;;0.83;100.00
45050;BME280;61798;48.048;-1.928;2024-01-15T06:37:50;99039.56;;;0.87;100.00
45050;BME280;61798;48.048;-1.928;2024-01-15T06:39:56;99029.53;;;0.82;100.00
45050;BME280;61798;48.048;-1.928;2024-01-15T06:42:02;99015.41;;;0.66;100.00
45050;BME280;61798;48.048;-1.928;2024-01-15T06:44:11;99044.66;;;0.88;100.00
45050;BME280;61798;48.048;-1.928;2024-01-15T06:46:21;99043.03;;;0.87;100.00
45050;BME280;61798;48.048;-1.928;2024-01-15T06:48:27;99035.63;;;0.82;100.00
45050;BME280;61798;48.048;-1.928;2024-01-15T06:50:33;99028.84;;;0.80;100.00
45050;BME280;61798;48.048;-1.928;2024-01-15T06:52:39;99032.03;;;0.75;100.00
45050;BME280;61798;48.048;-1.928;2024-01-15T06:54:45;99036.13;;;0.78;100.00
45050;BME280;61798;48.048;-1.928;2024-01-15T06:56:51;99037.31;;;0.75;100.00
45050;BME280;61798;48.048;-1.928;2024-01-15T06:58:57;99024.63;;;0.62;100.00
45050;BME280;61798;48.048;-1.928;2024-01-15T07:01:03;99042.56;;;0.75;100.00
45050;BME280;61798;48.048;-1.928;2024-01-15T07:03:10;99037.78;;;0.79;100.00
45050;BME280;61798;48.048;-1.928;2024-01-15T07:05:16;99060.50;;;0.88;100.00
45050;BME280;61798;48.048;-1.928;2024-01-15T07:07:21;99059.34;;;0.91;100.00
45050;BME280;61798;48.048;-1.928;2024-01-15T07:09:27;99054.22;;;0.89;100.00
45050;BME280;61798;48.048;-1.928;2024-01-15T07:11:33;99062.81;;;0.91;100.00
45050;BME280;61798;48.048;-1.928;2024-01-15T07:13:39;99049.66;;;0.83;100.00
45050;BME280;61798;48.048;-1.928;2024-01-15T07:15:45;99072.34;;;0.92;100.00
45050;BME280;61798;48.048;-1.928;2024-01-15T07:17:51;99076.66;;;0.93;100.00
45050;BME280;61798;48.048;-1.928;2024-01-15T07:19:56;99086.38;;;0.93;100.00
45050;BME280;61798;48.048;-1.928;2024-01-15T07:22:02;99078.97;;;0.88;100.00
45050;BME280;61798;48.048;-1.928;2024-01-15T07:24:08;99086.38;;;0.93;100.00
45050;BME280;61798;48.048;-1.928;2024-01-15T07:26:15;99075.66;;;0.94;100.00
45050;BME280;61798;48.048;-1.928;2024-01-15T07:28:20;99065.97;;;0.78;100.00
45050;BME280;61798;48.048;-1.928;2024-01-15T07:30:26;99066.09;;;0.93;100.00
45050;BME280;61798;48.048;-1.928;2024-01-15T07:32:33;99072.53;;;0.99;100.00
45050;BME280;61798;48.048;-1.928;2024-01-15T07:34:38;99060.50;;;0.88;100.00
45050;BME280;61798;48.048;-1.928;2024-01-15T07:36:44;99061.16;;;0.99;100.00
45050;BME280;61798;48.048;-1.928;2024-01-15T07:38:52;99040.56;;;0.86;100.00
45050;BME280;61798;48.048;-1.928;2024-01-15T07:40:57;99013.56;;;0.75;100.00
45050;BME280;61798;48.048;-1.928;2024-01-15T07:43:03;99028.84;;;0.80;100.00
45050;BME280;61798;48.048;-1.928;2024-01-15T07:45:10;99054.53;;;1.03;100.00
45050;BME280;61798;48.048;-1.928;2024-01-15T07:47:17;99027.69;;;0.91;100.00
45050;BME280;61798;48.048;-1.928;2024-01-15T07:49:23;98959.13;;;0.91;100.00
45050;BME280;61798;48.048;-1.928;2024-01-15T07:51:29;98980.66;;;1.03;100.00
45050;BME280;61798;48.048;-1.928;2024-01-15T07:53:35;98966.19;;;0.99;100.00
45050;BME280;61798;48.048;-1.928;2024-01-15T07:55:40;98979.66;;;1.04;100.00
45050;BME280;61798;48.048;-1.928;2024-01-15T07:57:46;98971.09;;;1.02;100.00
45050;BME280;61798;48.048;-1.928;2024-01-15T07:59:52;98969.09;;;1.04;100.00
45050;BME280;61798;48.048;-1.928;2024-01-15T08:01:59;98966.81;;;1.01;100.00
45050;BME280;61798;48.048;-1.928;2024-01-15T08:04:05;98956.63;;;0.98;100.00
45050;BME280;61798;48.048;-1.928;2024-01-15T08:06:11;98969.09;;;1.04;100.00
45050;BME280;61798;48.048;-1.928;2024-01-15T08:08:16;98967.13;;;1.06;100.00
45050;BME280;61798;48.048;-1.928;2024-01-15T08:10:22;98978.16;;;1.10;100.00
45050;BME280;61798;48.048;-1.928;2024-01-15T08:12:28;98972.56;;;1.04;100.00
45050;BME280;61798;48.048;-1.928;2024-01-15T08:14:34;98987.88;;;1.09;100.00
45050;BME280;61798;48.048;-1.928;2024-01-15T08:16:40;98995.09;;;1.15;100.00
45050;BME280;61798;48.048;-1.928;2024-01-15T08:18:47;98994.13;;;1.16;100.00
45050;BME280;61798;48.048;-1.928;2024-01-15T08:20:53;98979.63;;;1.12;100.00
45050;BME280;61798;48.048;-1.928;2024-01-15T08:22:59;98982.41;;;1.19;100.00
45050;BME280;61798;48.048;-1.928;2024-01-15T08:25:05;98996.25;;;1.21;100.00
45050;BME280;61798;48.048;-1.928;2024-01-15T08:27:11;98957.59;;;0.97;100.00
45050;BME280;61798;48.048;-1.928;2024-01-15T08:29:17;98983.22;;;1.20;100.00
45050;BME280;61798;48.048;-1.928;2024-01-15T08:31:26;98986.50;;;1.22;100.00
45050;BME280;61798;48.048;-1.928;2024-01-15T08:33:32;98965.91;;;1.17;100.00
45050;BME280;61798;48.048;-1.928;2024-01-15T08:35:38;98990.06;;;1.37;100.00
45050;BME280;61798;48.048;-1.928;2024-01-15T08:37:44;98989.06;;;1.39;100.00
45050;BME280;61798;48.048;-1.928;2024-01-15T08:39:50;98993.69;;;1.36;100.00
45050;BME280;61798;48.048;-1.928;2024-01-15T08:41:56;98975.25;;;1.28;100.00
45050;BME280;61798;48.048;-1.928;2024-01-15T08:44:01;98973.88;;;1.41;100.00
45050;BME280;61798;48.048;-1.928;2024-01-15T08:46:08;98981.47;;;1.35;100.00
45050;BME280;61798;48.048;-1.928;2024-01-15T08:48:14;98973.56;;;1.35;100.00
45050;BME280;61798;48.048;-1.928;2024-01-15T08:50:20;98985.25;;;1.41;100.00
45050;BME280;61798;48.048;-1.928;2024-01-15T08:52:26;98983.75;;;1.47;100.00
45050;BME280;61798;48.048;-1.928;2024-01-15T08:54:32;98977.81;;;1.45;100.00
45050;BME280;61798;48.048;-1.928;2024-01-15T08:56:38;98976.81;;;1.46;100.00
45050;BME280;61798;48.048;-1.928;2024-01-15T08:58:45;98976.34;;;1.42;100.00
45050;BME280;61798;48.048;-1.928;2024-01-15T09:00:51;98983.09;;;1.45;100.00
45050;BME280;61798;48.048;-1.928;2024-01-15T09:02:57;98973.44;;;1.29;100.00
45050;BME280;61798;48.048;-1.928;2024-01-15T09:05:04;98981.84;;;1.32;100.00
45050;BME280;61798;48.048;-1.928;2024-01-15T09:07:09;98979.38;;;1.31;100.00
45050;BME280;61798;48.048;-1.928;2024-01-15T09:09:15;98961.78;;;1.23;100.00
45050;BME280;61798;48.048;-1.928;2024-01-15T09:11:21;98946.63;;;1.16;100.00
45050;BME280;61798;48.048;-1.928;2024-01-15T09:13:27;98966.34;;;1.29;100.00
45050;BME280;61798;48.048;-1.928;2024-01-15T09:15:33;98953.47;;;1.34;100.00
45050;BME280;61798;48.048;-1.928;2024-01-15T09:17:39;98934.31;;;1.32;100.00
45050;BME280;61798;48.048;-1.928;2024-01-15T09:19:45;98934.28;;;1.41;100.00
45050;BME280;61798;48.048;-1.928;2024-01-15T09:21:51;98918.91;;;1.44;100.00
45050;BME280;61798;48.048;-1.928;2024-01-15T09:23:57;98894.00;;;1.47;100.00
45050;BME280;61798;48.048;-1.928;2024-01-15T09:26:04;98906.06;;;1.65;100.00
45050;BME280;61798;48.048;-1.928;2024-01-15T09:28:10;98898.44;;;1.70;100.00
45050;BME280;61798;48.048;-1.928;2024-01-15T09:30:16;98882.16;;;1.82;100.00
45050;BME280;61798;48.048;-1.928;2024-01-15T09:32:22;98868.66;;;1.92;100.00
45050;BME280;61798;48.048;-1.928;2024-01-15T09:34:28;98874.78;;;1.92;100.00
45050;BME280;61798;48.048;-1.928;2024-01-15T09:36:39;98870.22;;;1.86;100.00
45050;BME280;61798;48.048;-1.928;2024-01-15T09:38:46;98860.03;;;1.98;100.00
45050;BME280;61798;48.048;-1.928;2024-01-15T09:40:52;98866.69;;;1.94;100.00
45050;BME280;61798;48.048;-1.928;2024-01-15T09:42:58;98862.69;;;1.98;100.00
45050;BME280;61798;48.048;-1.928;2024-01-15T09:45:05;98827.16;;;2.00;100.00
45050;BME280;61798;48.048;-1.928;2024-01-15T09:47:12;98871.06;;;2.02;100.00
45050;BME280;61798;48.048;-1.928;2024-01-15T09:49:18;98833.09;;;2.03;100.00
45050;BME280;61798;48.048;-1.928;2024-01-15T09:51:24;98846.75;;;2.06;100.00
45050;BME280;61798;48.048;-1.928;2024-01-15T09:53:30;98823.31;;;2.03;100.00
45050;BME280;61798;48.048;-1.928;2024-01-15T09:55:37;98841.00;;;2.18;100.00
45050;BME280;61798;48.048;-1.928;2024-01-15T09:57:46;98837.91;;;2.14;100.00
45050;BME280;61798;48.048;-1.928;2024-01-15T09:59:53;98826.66;;;2.27;100.00
45050;BME280;61798;48.048;-1.928;2024-01-15T10:02:01;98818.19;;;2.32;100.00
45050;BME280;61798;48.048;-1.928;2024-01-15T10:04:08;98819.38;;;2.45;100.00
45050;BME280;61798;48.048;-1.928;2024-01-15T10:06:17;98818.53;;;2.44;100.00
45050;BME280;61798;48.048;-1.928;2024-01-15T10:08:23;98821.84;;;2.46;100.00
45050;BME280;61798;48.048;-1.928;2024-01-15T10:10:30;98830.13;;;2.43;100.00
45050;BME280;61798;48.048;-1.928;2024-01-15T10:12:37;98821.44;;;2.64;100.00
45050;BME280;61798;48.048;-1.928;2024-01-15T10:14:44;98821.31;;;2.73;100.00
45050;BME280;61798;48.048;-1.928;2024-01-15T10:16:50;98842.31;;;2.59;100.00
45050;BME280;61798;48.048;-1.928;2024-01-15T10:18:56;98844.84;;;2.68;100.00
45050;BME280;61798;48.048;-1.928;2024-01-15T10:21:03;98837.47;;;2.78;100.00
45050;BME280;61798;48.048;-1.928;2024-01-15T10:23:09;98824.06;;;2.64;100.00
45050;BME280;61798;48.048;-1.928;2024-01-15T10:25:15;98864.16;;;2.83;100.00
45050;BME280;61798;48.048;-1.928;2024-01-15T10:27:21;98856.50;;;2.89;100.00
45050;BME280;61798;48.048;-1.928;2024-01-15T10:29:27;98860.97;;;2.88;100.00
45050;BME280;61798;48.048;-1.928;2024-01-15T10:31:33;98869.66;;;2.82;100.00
45050;BME280;61798;48.048;-1.928;2024-01-15T10:33:39;98875.56;;;2.84;100.00
45050;BME280;61798;48.048;-1.928;2024-01-15T10:35:45;98878.31;;;2.75;100.00
45050;BME280;61798;48.048;-1.928;2024-01-15T10:37:51;98891.50;;;2.91;100.00
45050;BME280;61798;48.048;-1.928;2024-01-15T10:40:10;98906.44;;;3.14;100.00
45050;BME280;61798;48.048;-1.928;2024-01-15T10:42:16;98892.44;;;3.20;100.00
45050;BME280;61798;48.048;-1.928;2024-01-15T10:44:23;98915.50;;;3.26;100.00
45050;BME280;61798;48.048;-1.928;2024-01-15T10:46:29;98914.06;;;3.24;100.00
45050;BME280;61798;48.048;-1.928;2024-01-15T10:48:36;98913.25;;;3.23;100.00
45050;BME280;61798;48.048;-1.928;2024-01-15T10:50:42;98918.63;;;3.30;100.00
45050;BME280;61798;48.048;-1.928;2024-01-15T10:52:49;98920.13;;;3.40;100.00
45050;BME280;61798;48.048;-1.928;2024-01-15T10:54:55;98943.84;;;3.48;100.00
45050;BME280;61798;48.048;-1.928;2024-01-15T10:57:02;98939.66;;;3.38;100.00
45050;BME280;61798;48.048;-1.928;2024-01-15T10:59:09;98939.06;;;3.36;100.00